createdAt,value
2022-12-14T00:01:37.084Z,-0.70
2022-12-14T00:04:04.108Z,-0.80
2022-12-14T00:06:33.868Z,-0.70
2022-12-14T00:09:03.797Z,-0.80
2022-12-14T00:11:33.878Z,-0.70
2022-12-14T00:14:03.455Z,-0.80
2022-12-14T00:16:33.538Z,-0.80
2022-12-14T00:19:02.423Z,-0.80
2022-12-14T00:21:29.483Z,-0.80
2022-12-14T00:23:58.213Z,-0.90
2022-12-14T00:26:32.621Z,-1.00
2022-12-14T00:29:02.042Z,-0.90
2022-12-14T00:31:30.208Z,-0.90
2022-12-14T00:33:56.992Z,-0.90
2022-12-14T00:36:24.280Z,-1.00
2022-12-14T00:38:51.016Z,-1.00
2022-12-14T00:41:17.784Z,-1.00
2022-12-14T00:43:44.524Z,-1.00
2022-12-14T00:46:11.351Z,-1.10
2022-12-14T00:48:38.189Z,-1.10
2022-12-14T00:51:05.180Z,-1.00
2022-12-14T00:53:31.901Z,-1.10
2022-12-14T00:56:07.137Z,-1.10
2022-12-14T00:58:34.129Z,-1.10
2022-12-14T01:01:07.659Z,-1.20
2022-12-14T01:03:34.962Z,-1.20
2022-12-14T01:06:02.537Z,-1.20
2022-12-14T01:08:36.390Z,-1.30
2022-12-14T01:11:05.599Z,-1.20
2022-12-14T01:13:32.519Z,-1.40
2022-12-14T01:16:14.470Z,-1.30
2022-12-14T01:18:43.231Z,-1.30
2022-12-14T01:21:17.169Z,-1.30
2022-12-14T01:23:45.371Z,-1.30
2022-12-14T01:26:17.733Z,-1.30
2022-12-14T01:28:46.927Z,-1.40
2022-12-14T01:31:17.129Z,-1.40
2022-12-14T01:33:45.124Z,-1.40
2022-12-14T01:36:16.673Z,-1.40
2022-12-14T01:38:44.576Z,-1.40
2022-12-14T01:41:27.416Z,-1.40
2022-12-14T01:44:02.982Z,-1.40
2022-12-14T01:47:07.416Z,-1.40
2022-12-14T01:50:04.311Z,-1.40
2022-12-14T01:52:40.821Z,-1.40
2022-12-14T01:55:24.178Z,-1.40
2022-12-14T01:58:10.434Z,-1.50
2022-12-14T02:00:38.294Z,-1.40
2022-12-14T02:03:41.739Z,-1.50
2022-12-14T02:06:35.576Z,-1.50
2022-12-14T02:09:11.221Z,-1.50
2022-12-14T02:11:57.986Z,-1.50
2022-12-14T02:14:25.276Z,-1.50
2022-12-14T02:16:55.385Z,-1.50
2022-12-14T02:19:22.097Z,-1.60
2022-12-14T02:22:16.684Z,-1.60
2022-12-14T02:24:55.125Z,-1.60
2022-12-14T02:27:55.825Z,-1.60
2022-12-14T02:30:28.469Z,-1.70
2022-12-14T02:33:32.560Z,-1.70
2022-12-14T02:36:24.973Z,-1.70
2022-12-14T02:39:09.517Z,-1.70
2022-12-14T02:42:14.880Z,-1.70
2022-12-14T02:45:07.498Z,-1.80
2022-12-14T02:47:48.226Z,-1.80
2022-12-14T02:50:39.656Z,-1.80
2022-12-14T02:53:48.754Z,-1.80
2022-12-14T02:56:25.527Z,-1.90
2022-12-14T02:58:53.661Z,-1.90
2022-12-14T03:01:27.572Z,-1.90
2022-12-14T03:03:55.675Z,-1.90
2022-12-14T03:06:28.327Z,-1.90
2022-12-14T03:09:04.731Z,-1.90
2022-12-14T03:11:53.983Z,-1.90
2022-12-14T03:14:46.404Z,-1.90
2022-12-14T03:17:24.928Z,-1.90
2022-12-14T03:19:59.662Z,-2.00
2022-12-14T03:22:41.933Z,-2.00
2022-12-14T03:25:20.557Z,-2.00
2022-12-14T03:27:58.494Z,-2.00
2022-12-14T03:30:57.732Z,-2.10
2022-12-14T03:33:20.053Z,-2.10
2022-12-14T03:35:59.791Z,-2.10
2022-12-14T03:38:39.709Z,-2.10
2022-12-14T03:41:21.645Z,-2.20
2022-12-14T03:44:22.646Z,-2.20
2022-12-14T03:47:48.834Z,-2.20
2022-12-14T03:50:40.125Z,-2.30
2022-12-14T03:53:32.883Z,-2.30
2022-12-14T03:56:05.546Z,-2.30
2022-12-14T03:59:11.945Z,-2.30
2022-12-14T04:02:15.545Z,-2.40
2022-12-14T04:05:00.897Z,-2.40
2022-12-14T04:07:42.342Z,-2.40
2022-12-14T04:10:48.142Z,-2.40
2022-12-14T04:13:43.315Z,-2.40
2022-12-14T04:16:41.013Z,-2.40
2022-12-14T04:19:20.828Z,-2.40
2022-12-14T04:22:04.373Z,-2.40
2022-12-14T04:25:34.269Z,-2.40
2022-12-14T04:29:09.380Z,-2.40
2022-12-14T04:31:42.335Z,-2.50
2022-12-14T04:34:15.309Z,-2.50
2022-12-14T04:36:51.932Z,-2.50
2022-12-14T04:39:37.265Z,-2.50
2022-12-14T04:42:08.234Z,-2.50
2022-12-14T04:44:44.493Z,-2.50
2022-12-14T04:47:17.602Z,-2.50
2022-12-14T04:50:18.599Z,-2.50
2022-12-14T04:52:55.688Z,-2.50
2022-12-14T04:55:52.043Z,-2.50
2022-12-14T04:58:26.709Z,-2.50
2022-12-14T05:01:48.981Z,-2.50
2022-12-14T05:05:10.248Z,-2.50
2022-12-14T05:08:19.727Z,-2.50
2022-12-14T05:11:10.451Z,-2.60
2022-12-14T05:13:49.388Z,-2.60
2022-12-14T05:16:21.619Z,-2.30
2022-12-14T05:18:49.113Z,-2.60
2022-12-14T05:21:35.218Z,-2.60
2022-12-14T05:24:03.778Z,-2.60
2022-12-14T05:26:32.005Z,-2.60
2022-12-14T05:28:58.764Z,-2.70
2022-12-14T05:31:25.892Z,-2.70
2022-12-14T05:33:52.672Z,-2.70
2022-12-14T05:36:19.889Z,-2.60
2022-12-14T05:38:46.826Z,-2.70
2022-12-14T05:41:14.625Z,-2.70
2022-12-14T05:43:41.875Z,-2.70
2022-12-14T05:46:11.680Z,-2.70
2022-12-14T05:48:38.751Z,-2.60
2022-12-14T05:51:11.704Z,-2.60
2022-12-14T05:53:39.909Z,-2.60
2022-12-14T05:56:09.797Z,-2.70
2022-12-14T05:58:38.057Z,-2.70
2022-12-14T06:01:12.768Z,-2.70
2022-12-14T06:03:43.954Z,-2.70
2022-12-14T06:06:13.456Z,-2.70
2022-12-14T06:08:46.093Z,-2.70
2022-12-14T06:11:22.971Z,-2.70
2022-12-14T06:13:50.203Z,-2.70
2022-12-14T06:16:23.825Z,-2.80
2022-12-14T06:18:55.302Z,-2.70
2022-12-14T06:21:26.352Z,-2.80
2022-12-14T06:23:55.323Z,-2.80
2022-12-14T06:26:23.548Z,-2.80
2022-12-14T06:28:50.299Z,-2.80
2022-12-14T06:31:21.064Z,-2.70
2022-12-14T06:33:48.718Z,-2.80
2022-12-14T06:36:25.110Z,-2.80
2022-12-14T06:38:53.525Z,-2.70
2022-12-14T06:41:22.490Z,-2.70
2022-12-14T06:43:49.764Z,-2.80
2022-12-14T06:46:20.953Z,-2.80
2022-12-14T06:48:53.992Z,-2.80
2022-12-14T06:51:23.202Z,-2.80
2022-12-14T06:53:57.925Z,-2.80
2022-12-14T06:56:27.620Z,-2.80
2022-12-14T06:58:55.837Z,-2.80
2022-12-14T07:01:25.507Z,-2.80
2022-12-14T07:03:55.921Z,-2.80
2022-12-14T07:06:25.646Z,-2.80
2022-12-14T07:08:57.950Z,-2.80
2022-12-14T07:11:26.728Z,-2.80
2022-12-14T07:13:54.737Z,-2.80
2022-12-14T07:16:25.772Z,-2.80
2022-12-14T07:18:55.943Z,-2.80
2022-12-14T07:21:23.380Z,-2.70
2022-12-14T07:23:52.370Z,-2.70
2022-12-14T07:26:25.812Z,-2.70
2022-12-14T07:28:54.165Z,-2.70
2022-12-14T07:31:26.246Z,-2.70
2022-12-14T07:33:59.429Z,-2.70
2022-12-14T07:36:29.247Z,-2.70
2022-12-14T07:38:57.341Z,-2.70
2022-12-14T07:41:30.445Z,-2.70
2022-12-14T07:44:00.604Z,-2.70
2022-12-14T07:46:29.504Z,-2.70
2022-12-14T07:48:58.164Z,-2.70
2022-12-14T07:51:35.779Z,-2.70
2022-12-14T07:54:06.182Z,-2.60
2022-12-14T07:56:38.217Z,-2.60
2022-12-14T07:59:08.341Z,-2.60
2022-12-14T08:01:37.365Z,-2.60
2022-12-14T08:04:14.201Z,-2.60
2022-12-14T08:06:41.318Z,-2.60
2022-12-14T08:09:11.490Z,-2.60
2022-12-14T08:11:39.597Z,-2.50
2022-12-14T08:14:12.275Z,-2.50
2022-12-14T08:16:38.987Z,-2.50
2022-12-14T08:19:06.867Z,-2.50
2022-12-14T08:21:33.727Z,-2.40
2022-12-14T08:24:00.618Z,-2.40
2022-12-14T08:26:34.922Z,-2.40
2022-12-14T08:29:03.559Z,-2.40
2022-12-14T08:31:30.968Z,-2.40
2022-12-14T08:34:02.140Z,-2.30
2022-12-14T08:36:34.422Z,-2.30
2022-12-14T08:39:10.201Z,-2.30
2022-12-14T08:41:37.006Z,-2.30
2022-12-14T08:44:04.942Z,-2.30
2022-12-14T08:46:34.949Z,-2.30
2022-12-14T08:49:01.912Z,-2.30
2022-12-14T08:51:29.269Z,-2.30
2022-12-14T08:53:57.375Z,-2.30
2022-12-14T08:56:27.767Z,-2.10
2022-12-14T08:58:56.339Z,-2.20
2022-12-14T09:01:32.380Z,-2.20
2022-12-14T09:04:08.661Z,-2.10
2022-12-14T09:06:39.359Z,-2.10
2022-12-14T09:09:15.633Z,-2.00
2022-12-14T09:11:44.726Z,-2.00
2022-12-14T09:14:11.579Z,-2.00
2022-12-14T09:16:38.479Z,-2.00
2022-12-14T09:19:05.968Z,-1.90
2022-12-14T09:21:33.720Z,-1.90
2022-12-14T09:24:00.643Z,-1.90
2022-12-14T09:26:27.885Z,-1.80
2022-12-14T09:28:56.879Z,-1.80
2022-12-14T09:31:26.978Z,-1.70
2022-12-14T09:33:54.944Z,-1.70
2022-12-14T09:36:25.522Z,-1.60
2022-12-14T09:38:55.252Z,-1.60
2022-12-14T09:41:33.967Z,-1.60
2022-12-14T09:44:38.539Z,-1.50
2022-12-14T09:47:32.945Z,-1.50
2022-12-14T09:50:15.318Z,-1.50
2022-12-14T09:53:08.340Z,-1.40
2022-12-14T09:55:42.334Z,-1.40
2022-12-14T09:58:24.321Z,-1.40
2022-12-14T10:01:22.968Z,-1.30
2022-12-14T10:04:47.836Z,-1.30
2022-12-14T10:07:40.645Z,-1.20
2022-12-14T10:10:36.621Z,-1.10
2022-12-14T10:13:35.189Z,-1.10
2022-12-14T10:16:31.667Z,-1.00
2022-12-14T10:19:24.192Z,-1.00
2022-12-14T10:22:03.878Z,-1.20
2022-12-14T10:24:42.446Z,-0.90
2022-12-14T10:27:17.664Z,-0.80
2022-12-14T10:30:14.458Z,-0.70
2022-12-14T10:32:53.961Z,-0.70
2022-12-14T10:35:35.721Z,-0.60
2022-12-14T10:38:27.586Z,-0.60
2022-12-14T10:41:39.661Z,-0.50
2022-12-14T10:44:27.939Z,-0.50
2022-12-14T10:47:15.298Z,-0.40
2022-12-14T10:49:53.034Z,-0.30
2022-12-14T10:52:26.264Z,-0.30
2022-12-14T10:55:03.513Z,-0.20
2022-12-14T10:57:31.058Z,-0.10
2022-12-14T11:00:08.384Z,-0.10
2022-12-14T11:02:42.612Z,0.00
2022-12-14T11:05:37.232Z,0.10
2022-12-14T11:08:08.472Z,0.10
2022-12-14T11:10:39.547Z,0.20
2022-12-14T11:13:21.369Z,0.20
2022-12-14T11:15:52.517Z,0.30
2022-12-14T11:18:19.872Z,0.40
2022-12-14T11:20:53.235Z,0.50
2022-12-14T11:23:26.453Z,0.50
2022-12-14T11:26:00.322Z,0.60
2022-12-14T11:28:53.220Z,0.70
2022-12-14T11:31:40.146Z,0.70
2022-12-14T11:34:34.601Z,0.80
2022-12-14T11:37:29.201Z,0.80
2022-12-14T11:40:01.076Z,0.90
2022-12-14T11:42:28.698Z,0.90
2022-12-14T11:45:32.860Z,1.00
2022-12-14T11:48:14.378Z,1.00
2022-12-14T11:50:47.776Z,1.00
2022-12-14T11:53:18.732Z,1.00
2022-12-14T11:55:59.749Z,1.10
2022-12-14T11:58:32.390Z,1.00
2022-12-14T12:01:19.325Z,0.20
2022-12-14T12:03:51.047Z,1.10
2022-12-14T12:06:30.068Z,1.10
2022-12-14T12:09:00.451Z,1.10
2022-12-14T12:11:31.742Z,1.20
2022-12-14T12:14:34.526Z,1.20
2022-12-14T12:17:01.535Z,1.20
2022-12-14T12:19:36.465Z,1.20
2022-12-14T12:22:05.341Z,1.20
2022-12-14T12:24:41.644Z,1.20
2022-12-14T12:27:19.929Z,1.20
2022-12-14T12:29:56.871Z,1.30
2022-12-14T12:32:34.566Z,1.30
2022-12-14T12:35:14.507Z,1.30
2022-12-14T12:38:06.424Z,1.30
2022-12-14T12:40:41.521Z,1.30
2022-12-14T12:43:35.145Z,1.30
2022-12-14T12:46:32.949Z,1.30
2022-12-14T12:49:12.583Z,1.30
2022-12-14T12:51:56.074Z,1.30
2022-12-14T12:54:37.714Z,1.30
2022-12-14T12:57:08.302Z,1.20
2022-12-14T12:59:50.306Z,1.20
2022-12-14T13:02:31.291Z,1.20
2022-12-14T13:05:29.152Z,1.20
2022-12-14T13:08:22.451Z,1.20
2022-12-14T13:13:48.332Z,1.20
2022-12-14T13:16:31.607Z,1.20
2022-12-14T13:22:15.119Z,1.20
2022-12-14T13:24:47.182Z,1.20
2022-12-14T13:28:03.803Z,1.20
2022-12-14T13:31:20.278Z,1.20
2022-12-14T13:34:29.515Z,1.20
2022-12-14T13:37:26.897Z,1.10
2022-12-14T13:41:01.840Z,1.10
2022-12-14T13:43:48.541Z,1.10
2022-12-14T13:46:29.243Z,1.10
2022-12-14T13:49:16.838Z,1.10
2022-12-14T13:51:50.052Z,1.00
2022-12-14T13:54:43.026Z,1.00
2022-12-14T13:57:21.140Z,1.00
2022-12-14T13:59:54.766Z,1.00
2022-12-14T14:02:38.524Z,-0.70
2022-12-14T14:05:18.784Z,0.90
2022-12-14T14:07:53.582Z,0.90
2022-12-14T14:10:39.743Z,0.80
2022-12-14T14:13:28.118Z,0.80
2022-12-14T14:16:30.373Z,0.80
2022-12-14T14:19:09.225Z,0.80
2022-12-14T14:22:22.153Z,0.70
2022-12-14T14:24:58.173Z,0.70
2022-12-14T14:27:50.821Z,0.70
2022-12-14T14:30:33.705Z,0.60
2022-12-14T14:33:35.938Z,0.50
2022-12-14T14:35:49.835Z,0.50
2022-12-14T14:38:27.922Z,0.50
2022-12-14T14:41:19.270Z,0.50
2022-12-14T14:43:59.678Z,0.40
2022-12-14T14:46:45.847Z,0.40
2022-12-14T14:49:36.090Z,0.40
2022-12-14T14:52:40.017Z,0.40
2022-12-14T14:58:35.363Z,0.40
2022-12-14T15:01:21.140Z,0.40
2022-12-14T15:03:59.301Z,0.40
2022-12-14T15:06:38.935Z,0.40
2022-12-14T15:09:20.205Z,0.30
2022-12-14T15:11:52.732Z,0.30
2022-12-14T15:14:48.203Z,0.30
2022-12-14T15:17:23.483Z,0.30
2022-12-14T15:19:52.463Z,0.30
2022-12-14T15:22:27.174Z,0.20
2022-12-14T15:24:58.996Z,0.20
2022-12-14T15:27:32.672Z,0.20
2022-12-14T15:30:27.936Z,0.20
2022-12-14T15:33:23.628Z,0.20
2022-12-14T15:35:52.674Z,0.20
2022-12-14T15:38:27.752Z,0.10
2022-12-14T15:41:03.231Z,0.20
2022-12-14T15:43:30.914Z,0.80
2022-12-14T15:46:04.172Z,0.10
2022-12-14T15:48:35.212Z,0.10
2022-12-14T15:51:06.846Z,0.10
2022-12-14T15:53:50.235Z,0.10
2022-12-14T15:56:36.848Z,0.10
2022-12-14T15:59:15.654Z,0.10
2022-12-14T16:01:53.719Z,0.10
2022-12-14T16:04:27.589Z,0.00
2022-12-14T16:07:09.100Z,0.00
2022-12-14T16:09:43.906Z,0.00
2022-12-14T16:12:45.301Z,-0.20
2022-12-14T16:15:21.493Z,0.00
2022-12-14T16:17:53.660Z,-0.10
2022-12-14T16:20:38.300Z,-0.10
2022-12-14T16:23:13.736Z,-0.10
2022-12-14T16:26:13.987Z,-0.20
2022-12-14T16:28:41.396Z,-0.10
2022-12-14T16:31:20.358Z,-0.20
2022-12-14T16:34:05.766Z,-0.20
2022-12-14T16:36:37.949Z,-0.20
2022-12-14T16:39:16.433Z,-0.20
2022-12-14T16:41:51.150Z,-0.30
2022-12-14T16:44:35.582Z,-0.30
2022-12-14T16:47:02.531Z,-0.30
2022-12-14T16:49:39.566Z,-0.30
2022-12-14T16:52:26.801Z,-0.30
2022-12-14T16:55:20.136Z,-0.30
2022-12-14T16:57:55.684Z,-0.30
2022-12-14T17:00:34.214Z,-0.30
2022-12-14T17:03:05.779Z,-0.30
2022-12-14T17:05:37.440Z,-0.40
2022-12-14T17:08:05.780Z,-0.30
2022-12-14T17:10:33.318Z,-0.40
2022-12-14T17:13:02.820Z,-0.40
2022-12-14T17:15:35.168Z,-0.40
2022-12-14T17:18:07.023Z,-0.50
2022-12-14T17:20:36.732Z,-0.50
2022-12-14T17:23:07.598Z,-0.50
2022-12-14T17:25:35.559Z,-0.50
2022-12-14T17:28:02.946Z,-0.60
2022-12-14T17:30:29.902Z,-0.60
2022-12-14T17:32:57.993Z,-0.60
2022-12-14T17:35:31.357Z,-0.60
2022-12-14T17:37:58.753Z,-0.60
2022-12-14T17:40:27.068Z,-0.60
2022-12-14T17:42:59.671Z,-0.60
2022-12-14T17:45:29.573Z,-0.60
2022-12-14T17:47:57.451Z,-0.70
2022-12-14T17:50:26.011Z,-0.70
2022-12-14T17:52:53.217Z,-0.70
2022-12-14T17:55:27.505Z,-0.70
2022-12-14T17:57:55.852Z,-0.70
2022-12-14T18:00:48.827Z,-0.80
2022-12-14T18:03:18.408Z,-0.80
2022-12-14T18:05:52.386Z,-0.80
2022-12-14T18:08:21.025Z,-0.80
2022-12-14T18:10:57.184Z,-0.90
2022-12-14T18:13:24.435Z,-0.90
2022-12-14T18:15:53.084Z,-0.90
2022-12-14T18:18:25.029Z,-0.90
2022-12-14T18:20:56.809Z,-0.90
2022-12-14T18:23:23.913Z,-0.90
2022-12-14T18:25:54.587Z,-1.00
2022-12-14T18:28:21.788Z,-1.00
2022-12-14T18:30:55.347Z,-1.00
2022-12-14T18:33:26.129Z,-1.00
2022-12-14T18:35:55.513Z,-1.00
2022-12-14T18:38:23.176Z,-1.10
2022-12-14T18:40:54.279Z,-1.10
2022-12-14T18:43:28.036Z,-1.10
2022-12-14T18:45:56.593Z,-1.20
2022-12-14T18:48:25.150Z,-1.10
2022-12-14T18:50:54.844Z,-1.20
2022-12-14T18:53:24.653Z,-1.20
2022-12-14T18:55:51.831Z,-1.20
2022-12-14T18:58:26.552Z,-1.20
2022-12-14T19:00:57.727Z,-1.20
2022-12-14T19:03:26.133Z,-1.20
2022-12-14T19:06:26.779Z,-1.30
2022-12-14T19:08:51.390Z,-1.20
2022-12-14T19:11:35.649Z,-1.30
2022-12-14T19:14:02.384Z,-1.20
2022-12-14T19:16:29.332Z,-1.30
2022-12-14T19:18:56.933Z,-1.30
2022-12-14T19:21:25.439Z,-1.30
2022-12-14T19:23:52.186Z,-1.30
2022-12-14T19:26:18.950Z,-1.30
2022-12-14T19:28:45.700Z,-1.40
2022-12-14T19:31:12.624Z,-1.40
2022-12-14T19:33:39.495Z,-1.40
2022-12-14T19:36:08.046Z,-1.40
2022-12-14T19:38:36.907Z,-1.40
2022-12-14T19:41:11.357Z,-1.50
2022-12-14T19:43:38.479Z,-1.50
2022-12-14T19:46:07.896Z,-1.50
2022-12-14T19:48:38.185Z,-1.50
2022-12-14T19:51:12.438Z,-1.50
2022-12-14T19:53:42.953Z,-1.50
2022-12-14T19:56:11.350Z,-1.50
2022-12-14T19:58:38.099Z,-1.50
2022-12-14T20:01:14.121Z,-1.60
2022-12-14T20:03:41.006Z,-1.60
2022-12-14T20:06:08.419Z,-1.60
2022-12-14T20:08:36.523Z,-1.60
2022-12-14T20:11:09.491Z,-1.60
2022-12-14T20:13:36.989Z,-1.70
2022-12-14T20:16:04.169Z,-1.70
2022-12-14T20:18:31.664Z,-1.60
2022-12-14T20:21:08.233Z,-1.70
2022-12-14T20:23:37.544Z,-1.70
2022-12-14T20:26:16.086Z,-1.70
2022-12-14T20:28:43.339Z,-1.70
2022-12-14T20:31:10.731Z,-1.80
2022-12-14T20:33:38.846Z,-1.80
2022-12-14T20:36:06.663Z,-1.80
2022-12-14T20:38:33.989Z,-1.80
2022-12-14T20:41:13.776Z,-1.80
2022-12-14T20:43:45.371Z,-1.80
2022-12-14T20:46:40.771Z,-1.80
2022-12-14T20:49:14.505Z,-1.90
2022-12-14T20:51:42.531Z,-1.90
2022-12-14T20:54:14.482Z,-2.00
2022-12-14T20:56:42.207Z,-2.00
2022-12-14T20:59:10.343Z,-2.00
2022-12-14T21:01:39.167Z,-2.00
2022-12-14T21:04:07.166Z,-2.00
2022-12-14T21:06:39.205Z,-2.00
2022-12-14T21:09:09.542Z,-2.00
2022-12-14T21:12:03.144Z,-2.00
2022-12-14T21:14:38.021Z,-2.00
2022-12-14T21:17:06.087Z,-2.00
2022-12-14T21:19:33.634Z,-2.00
2022-12-14T21:22:00.388Z,-2.00
2022-12-14T21:25:01.040Z,-2.00
2022-12-14T21:27:28.334Z,-2.00
2022-12-14T21:29:55.109Z,-2.00
2022-12-14T21:32:22.765Z,-2.00
2022-12-14T21:34:49.883Z,-2.00
2022-12-14T21:37:17.194Z,-2.00
2022-12-14T21:39:49.037Z,-2.00
2022-12-14T21:42:20.679Z,-2.00
2022-12-14T21:44:50.171Z,-2.00
2022-12-14T21:47:29.738Z,-2.00
2022-12-14T21:49:57.203Z,-2.00
2022-12-14T21:52:28.014Z,-2.10
2022-12-14T21:54:55.961Z,-2.10
2022-12-14T21:57:49.921Z,-2.10
2022-12-14T22:00:18.322Z,-2.10
2022-12-14T22:02:45.240Z,-2.10
2022-12-14T22:05:12.170Z,-2.10
2022-12-14T22:07:39.350Z,-2.10
2022-12-14T22:10:06.584Z,-2.10
2022-12-14T22:12:33.326Z,-2.10
2022-12-14T22:15:00.118Z,-2.10
2022-12-14T22:17:26.909Z,-2.10
2022-12-14T22:19:55.065Z,-2.20
2022-12-14T22:22:22.209Z,-2.10
2022-12-14T22:24:49.879Z,-2.10
2022-12-14T22:27:16.967Z,-2.10
2022-12-14T22:29:43.712Z,-2.10
2022-12-14T22:32:12.350Z,-2.20
2022-12-14T22:34:39.236Z,-2.20
2022-12-14T22:37:06.233Z,-2.20
2022-12-14T22:39:33.113Z,-2.20
2022-12-14T22:42:00.217Z,-2.20
2022-12-14T22:44:27.123Z,-2.30
2022-12-14T22:46:53.888Z,-2.30
2022-12-14T22:49:20.692Z,-2.30
2022-12-14T22:51:47.567Z,-2.30
2022-12-14T22:54:26.745Z,-2.30
2022-12-14T22:57:06.245Z,-2.30
2022-12-14T22:59:54.125Z,-2.30
2022-12-14T23:02:21.125Z,-2.40
2022-12-14T23:04:50.113Z,-2.40
2022-12-14T23:07:17.245Z,-2.40
2022-12-14T23:10:02.966Z,-2.40
2022-12-14T23:12:48.646Z,-2.40
2022-12-14T23:15:34.241Z,-2.40
2022-12-14T23:18:25.465Z,-2.40
2022-12-14T23:21:12.632Z,-2.40
2022-12-14T23:24:03.759Z,-2.40
2022-12-14T23:26:50.157Z,-2.60
2022-12-14T23:29:35.786Z,-2.50
2022-12-14T23:32:21.169Z,-2.40
2022-12-14T23:35:06.674Z,-2.50
2022-12-14T23:37:51.980Z,-2.40
2022-12-14T23:40:37.885Z,-2.50
2022-12-14T23:43:36.626Z,-2.50
2022-12-14T23:46:23.985Z,-2.40
2022-12-14T23:49:15.366Z,-2.50
2022-12-14T23:52:01.824Z,-2.50
2022-12-14T23:54:47.429Z,-2.50
2022-12-14T23:57:32.882Z,-2.50
